createdAt,value
2022-09-12T00:01:16.720Z,98539.75
2022-09-12T00:03:43.850Z,98551.63
2022-09-12T00:06:23.394Z,98543.53
2022-09-12T00:08:51.432Z,98530.97
2022-09-12T00:11:18.889Z,98543.22
2022-09-12T00:13:45.704Z,98544.69
2022-09-12T00:16:24.198Z,98554.47
2022-09-12T00:18:51.392Z,98565.22
2022-09-12T00:21:18.643Z,98564.84
2022-09-12T00:23:46.198Z,98564.06
2022-09-12T00:26:13.315Z,98562.81
2022-09-12T00:28:40.720Z,98557.00
2022-09-12T00:31:11.041Z,98550.25
2022-09-12T00:33:38.106Z,98536.09
2022-09-12T00:36:11.304Z,98550.66
2022-09-12T00:38:41.853Z,98537.06
2022-09-12T00:41:16.456Z,98531.69
2022-09-12T00:43:45.895Z,98535.66
2022-09-12T00:46:48.549Z,98525.44
2022-09-12T00:49:33.473Z,98520.97
2022-09-12T00:52:35.973Z,98518.44
2022-09-12T00:55:14.615Z,98523.13
2022-09-12T00:58:00.109Z,98532.28
2022-09-12T01:00:28.107Z,98525.94
2022-09-12T01:03:00.218Z,98524.69
2022-09-12T01:05:29.759Z,98528.41
2022-09-12T01:07:57.162Z,98524.91
2022-09-12T01:10:24.504Z,98528.75
2022-09-12T01:12:51.764Z,98525.97
2022-09-12T01:15:18.347Z,98534.16
2022-09-12T01:18:08.293Z,98531.94
2022-09-12T01:21:16.603Z,98525.28
2022-09-12T01:23:58.032Z,98541.41
2022-09-12T01:26:38.858Z,98534.00
2022-09-12T01:29:44.452Z,98532.19
2022-09-12T01:32:37.729Z,98528.28
2022-09-12T01:35:17.377Z,98516.63
2022-09-12T01:37:59.680Z,98498.81
2022-09-12T01:40:40.747Z,98512.91
2022-09-12T01:43:21.330Z,98513.00
2022-09-12T01:46:00.447Z,98513.34
2022-09-12T01:48:37.138Z,98516.19
2022-09-12T01:51:23.657Z,98516.28
2022-09-12T01:54:01.645Z,98515.22
2022-09-12T01:56:33.142Z,98511.63
2022-09-12T01:59:08.530Z,98506.22
2022-09-12T02:01:55.630Z,98505.03
2022-09-12T02:04:33.522Z,98488.50
2022-09-12T02:07:06.716Z,98484.66
2022-09-12T02:09:43.806Z,98489.34
2022-09-12T02:12:14.980Z,98487.75
2022-09-12T02:14:47.765Z,98476.00
2022-09-12T02:17:19.533Z,98479.59
2022-09-12T02:20:06.019Z,98490.41
2022-09-12T02:22:36.019Z,98496.06
2022-09-12T02:25:05.899Z,98490.75
2022-09-12T02:27:44.880Z,98487.56
2022-09-12T02:30:14.602Z,98497.19
2022-09-12T02:32:50.395Z,98499.31
2022-09-12T02:35:45.926Z,98507.25
2022-09-12T02:38:18.517Z,98508.19
2022-09-12T02:40:45.499Z,98496.53
2022-09-12T02:43:12.228Z,98480.75
2022-09-12T02:45:39.124Z,98474.19
2022-09-12T02:48:15.389Z,98480.34
2022-09-12T02:50:42.806Z,98465.63
2022-09-12T02:53:10.685Z,98481.69
2022-09-12T02:55:40.625Z,98485.72
2022-09-12T02:58:13.684Z,98488.75
2022-09-12T03:00:51.699Z,98490.31
2022-09-12T03:03:55.962Z,98492.50
2022-09-12T03:06:54.493Z,98488.19
2022-09-12T03:09:42.421Z,98486.59
2022-09-12T03:12:39.945Z,98492.28
2022-09-12T03:15:28.277Z,98472.03
2022-09-12T03:18:19.871Z,98480.06
2022-09-12T03:20:57.486Z,98484.59
2022-09-12T03:24:02.884Z,98488.41
2022-09-12T03:26:36.378Z,98481.81
2022-09-12T03:29:06.489Z,98492.31
2022-09-12T03:31:33.431Z,98490.69
2022-09-12T03:34:00.877Z,98505.81
2022-09-12T03:36:29.653Z,98500.66
2022-09-12T03:38:56.744Z,98498.94
2022-09-12T03:41:23.450Z,98500.72
2022-09-12T03:43:50.220Z,98487.16
2022-09-12T03:46:17.005Z,98499.31
2022-09-12T03:48:43.863Z,98497.81
2022-09-12T03:51:11.208Z,98506.91
2022-09-12T03:53:38.152Z,98508.91
2022-09-12T03:56:10.247Z,98514.00
2022-09-12T03:58:37.654Z,98509.00
2022-09-12T04:01:12.909Z,98506.75
2022-09-12T04:03:41.358Z,98511.28
2022-09-12T04:06:10.199Z,98506.19
2022-09-12T04:08:37.617Z,98505.63
2022-09-12T04:11:10.932Z,98500.34
2022-09-12T04:13:39.153Z,98494.97
2022-09-12T04:16:07.319Z,98486.25
2022-09-12T04:18:35.277Z,98490.75
2022-09-12T04:21:07.490Z,98502.38
2022-09-12T04:23:34.630Z,98511.00
2022-09-12T04:26:02.858Z,98500.63
2022-09-12T04:28:30.546Z,98499.69
2022-09-12T04:31:06.101Z,98490.78
2022-09-12T04:33:33.192Z,98487.88
2022-09-12T04:36:08.324Z,98485.44
2022-09-12T04:38:36.274Z,98502.78
2022-09-12T04:41:20.896Z,98486.94
2022-09-12T04:43:51.787Z,98503.34
2022-09-12T04:46:21.886Z,98497.28
2022-09-12T04:48:51.359Z,98501.66
2022-09-12T04:51:26.026Z,98517.69
2022-09-12T04:53:53.826Z,98511.88
2022-09-12T04:56:21.603Z,98505.63
2022-09-12T04:58:49.038Z,98503.44
2022-09-12T05:01:21.647Z,98498.91
2022-09-12T05:03:49.718Z,98486.22
2022-09-12T05:06:19.642Z,98502.38
2022-09-12T05:08:47.027Z,98507.56
2022-09-12T05:11:16.776Z,98502.81
2022-09-12T05:13:43.642Z,98498.84
2022-09-12T05:16:12.411Z,98501.53
2022-09-12T05:18:39.690Z,98496.19
2022-09-12T05:21:08.111Z,98494.31
2022-09-12T05:23:35.747Z,98494.56
2022-09-12T05:26:03.445Z,98501.72
2022-09-12T05:28:32.766Z,98503.34
2022-09-12T05:31:08.510Z,98499.66
2022-09-12T05:33:37.186Z,98515.22
2022-09-12T05:36:06.397Z,98518.75
2022-09-12T05:38:37.438Z,98516.50
2022-09-12T05:41:17.053Z,98504.59
2022-09-12T05:43:45.896Z,98521.34
2022-09-12T05:46:18.065Z,98538.25
2022-09-12T05:48:46.954Z,98558.47
2022-09-12T05:51:21.247Z,98594.06
2022-09-12T05:53:52.810Z,98583.06
2022-09-12T05:56:24.150Z,98588.56
2022-09-12T05:59:04.200Z,98602.25
2022-09-12T06:01:32.661Z,98597.09
2022-09-12T06:04:01.493Z,98582.69
2022-09-12T06:06:30.697Z,98583.97
2022-09-12T06:09:00.127Z,98584.84
2022-09-12T06:11:28.966Z,98583.19
2022-09-12T06:13:57.546Z,98588.72
2022-09-12T06:16:26.931Z,98596.91
2022-09-12T06:18:56.108Z,98589.69
2022-09-12T06:21:23.850Z,98587.16
2022-09-12T06:23:51.218Z,98597.28
2022-09-12T06:26:21.623Z,98580.31
2022-09-12T06:28:48.572Z,98594.63
2022-09-12T06:31:20.564Z,98582.03
2022-09-12T06:33:49.521Z,98579.06
2022-09-12T06:36:39.688Z,98569.41
2022-09-12T06:39:17.676Z,98585.19
2022-09-12T06:41:45.487Z,98585.06
2022-09-12T06:44:16.564Z,98595.59
2022-09-12T06:46:44.268Z,98592.66
2022-09-12T06:49:12.012Z,98593.72
2022-09-12T06:51:38.718Z,98597.66
2022-09-12T06:54:05.725Z,98598.25
2022-09-12T06:56:32.568Z,98602.72
2022-09-12T06:58:59.568Z,98614.78
2022-09-12T07:01:31.195Z,98612.25
2022-09-12T07:04:03.896Z,98614.63
2022-09-12T07:06:42.200Z,98612.81
2022-09-12T07:09:12.294Z,98622.31
2022-09-12T07:11:40.875Z,98611.50
2022-09-12T07:14:10.457Z,98613.44
2022-09-12T07:16:37.559Z,98610.91
2022-09-12T07:19:06.613Z,98614.31
2022-09-12T07:21:36.443Z,98613.91
2022-09-12T07:24:03.332Z,98623.34
2022-09-12T07:26:30.248Z,98626.53
2022-09-12T07:29:12.742Z,98629.31
2022-09-12T07:31:45.390Z,98626.97
2022-09-12T07:34:12.093Z,98623.00
2022-09-12T07:36:39.228Z,98631.91
2022-09-12T07:39:06.116Z,98637.47
2022-09-12T07:41:36.367Z,98638.78
2022-09-12T07:44:04.039Z,98638.63
2022-09-12T07:46:31.487Z,98632.63
2022-09-12T07:49:00.001Z,98629.75
2022-09-12T07:51:28.332Z,98635.75
2022-09-12T07:53:56.584Z,98635.13
2022-09-12T07:56:29.308Z,98629.28
2022-09-12T07:58:57.726Z,98635.03
2022-09-12T08:01:25.012Z,98626.19
2022-09-12T08:03:59.750Z,98629.25
2022-09-12T08:06:30.345Z,98623.09
2022-09-12T08:08:58.733Z,98625.13
2022-09-12T08:11:28.024Z,98625.78
2022-09-12T08:13:57.182Z,98623.09
2022-09-12T08:16:29.584Z,98623.94
2022-09-12T08:18:56.886Z,98613.97
2022-09-12T08:21:26.400Z,98603.56
2022-09-12T08:24:02.282Z,98610.47
2022-09-12T08:26:29.393Z,98610.63
2022-09-12T08:28:56.505Z,98613.13
2022-09-12T08:31:25.452Z,98611.81
2022-09-12T08:33:52.792Z,98616.66
2022-09-12T08:36:22.665Z,98613.31
2022-09-12T08:38:59.799Z,98616.34
2022-09-12T08:41:42.298Z,98618.72
2022-09-12T08:45:05.268Z,98619.88
2022-09-12T08:47:40.004Z,98619.81
2022-09-12T08:50:15.800Z,98613.06
2022-09-12T08:52:45.086Z,98613.91
2022-09-12T08:55:24.991Z,98605.00
2022-09-12T08:57:52.296Z,98618.31
2022-09-12T09:00:20.126Z,98605.84
2022-09-12T09:02:55.345Z,98602.81
2022-09-12T09:05:38.027Z,98612.03
2022-09-12T09:08:17.955Z,98605.81
2022-09-12T09:10:59.338Z,98602.59
2022-09-12T09:13:47.744Z,98603.03
2022-09-12T09:16:35.086Z,98610.63
2022-09-12T09:19:05.708Z,98600.38
2022-09-12T09:22:00.939Z,98595.50
2022-09-12T09:24:42.849Z,98601.16
2022-09-12T09:27:39.872Z,98602.19
2022-09-12T09:30:19.315Z,98603.00
2022-09-12T09:32:53.609Z,98598.97
2022-09-12T09:35:44.419Z,98596.31
2022-09-12T09:38:29.426Z,98586.19
2022-09-12T09:41:20.945Z,98582.03
2022-09-12T09:43:47.753Z,98572.44
2022-09-12T09:46:15.252Z,98583.03
2022-09-12T09:48:46.156Z,98572.06
2022-09-12T09:51:15.212Z,98569.75
2022-09-12T09:53:47.869Z,98575.03
2022-09-12T09:56:26.978Z,98571.19
2022-09-12T09:58:54.438Z,98568.88
2022-09-12T10:01:21.290Z,98570.06
2022-09-12T10:03:50.676Z,98562.50
2022-09-12T10:06:22.877Z,98554.19
2022-09-12T10:08:51.023Z,98559.19
2022-09-12T10:11:23.240Z,98559.53
2022-09-12T10:13:56.300Z,98558.91
2022-09-12T10:16:28.988Z,98551.53
2022-09-12T10:18:58.570Z,98543.41
2022-09-12T10:21:33.344Z,98549.19
2022-09-12T10:24:18.408Z,98544.00
2022-09-12T10:26:55.866Z,98538.84
2022-09-12T10:29:32.511Z,98535.63
2022-09-12T10:32:03.779Z,98532.97
2022-09-12T10:34:39.074Z,98525.78
2022-09-12T10:37:08.773Z,98523.91
2022-09-12T10:39:38.563Z,98519.81
2022-09-12T10:42:05.977Z,98517.09
2022-09-12T10:44:35.272Z,98521.78
2022-09-12T10:47:21.966Z,98519.06
2022-09-12T10:49:51.245Z,98527.19
2022-09-12T10:52:25.278Z,98522.50
2022-09-12T10:54:52.595Z,98524.66
2022-09-12T10:57:54.363Z,98520.91
2022-09-12T11:00:27.748Z,98520.94
2022-09-12T11:03:15.335Z,98515.16
2022-09-12T11:05:53.138Z,98512.69
2022-09-12T11:08:38.480Z,98508.72
2022-09-12T11:11:05.272Z,98508.91
2022-09-12T11:13:51.851Z,98506.16
2022-09-12T11:16:27.584Z,98507.53
2022-09-12T11:19:05.049Z,98503.03
2022-09-12T11:21:56.714Z,98498.13
2022-09-12T11:24:42.212Z,98499.38
2022-09-12T11:27:32.157Z,98501.28
2022-09-12T11:30:11.172Z,98502.41
2022-09-12T11:33:23.475Z,98500.84
2022-09-12T11:35:55.173Z,98500.63
2022-09-12T11:38:31.279Z,98500.09
2022-09-12T11:41:20.408Z,98492.38
2022-09-12T11:43:53.737Z,98491.63
2022-09-12T11:46:32.441Z,98503.09
2022-09-12T11:49:14.405Z,98497.38
2022-09-12T11:52:03.150Z,98498.28
2022-09-12T11:54:36.695Z,98493.03
2022-09-12T11:57:12.369Z,98500.94
2022-09-12T11:59:58.381Z,98492.78
2022-09-12T12:02:29.642Z,98489.16
2022-09-12T12:05:02.681Z,98484.09
2022-09-12T12:07:46.461Z,98481.84
2022-09-12T12:10:33.827Z,98483.59
2022-09-12T12:13:05.501Z,98470.50
2022-09-12T12:15:34.923Z,98478.81
2022-09-12T12:18:06.377Z,98473.75
2022-09-12T12:20:33.763Z,98475.56
2022-09-12T12:23:00.978Z,98466.88
2022-09-12T12:25:50.707Z,98465.97
2022-09-12T12:28:44.292Z,98471.53
2022-09-12T12:31:11.536Z,98470.75
2022-09-12T12:33:38.277Z,98463.09
2022-09-12T12:36:30.633Z,98460.91
2022-09-12T12:38:57.402Z,98457.06
2022-09-12T12:41:27.321Z,98457.19
2022-09-12T12:43:56.437Z,98454.53
2022-09-12T12:46:26.975Z,98455.72
2022-09-12T12:49:26.898Z,98448.75
2022-09-12T12:51:53.579Z,98449.81
2022-09-12T12:54:41.665Z,98446.09
2022-09-12T12:57:23.431Z,98448.44
2022-09-12T12:59:50.168Z,98450.09
2022-09-12T13:02:42.217Z,98458.13
2022-09-12T13:05:24.860Z,98460.72
2022-09-12T13:07:58.044Z,98454.13
2022-09-12T13:10:29.355Z,98445.38
2022-09-12T13:12:59.713Z,98442.66
2022-09-12T13:15:35.702Z,98448.19
2022-09-12T13:18:11.561Z,98440.56
2022-09-12T13:20:48.378Z,98440.81
2022-09-12T13:23:25.538Z,98435.66
2022-09-12T13:25:57.646Z,98423.59
2022-09-12T13:28:26.435Z,98428.03
2022-09-12T13:30:59.101Z,98425.09
2022-09-12T13:33:40.761Z,98418.31
2022-09-12T13:36:18.092Z,98423.78
2022-09-12T13:38:44.823Z,98404.69
2022-09-12T13:41:49.136Z,98402.22
2022-09-12T13:44:20.578Z,98403.00
2022-09-12T13:46:47.753Z,98401.19
2022-09-12T13:49:30.872Z,98385.59
2022-09-12T13:52:19.028Z,98389.72
2022-09-12T13:54:49.287Z,98384.97
2022-09-12T13:57:37.791Z,98389.97
2022-09-12T14:00:20.064Z,98383.47
2022-09-12T14:02:48.389Z,98382.44
2022-09-12T14:05:26.434Z,98377.47
2022-09-12T14:07:58.488Z,98389.44
2022-09-12T14:10:39.959Z,98387.97
2022-09-12T14:13:25.220Z,98388.63
2022-09-12T14:15:54.997Z,98385.81
2022-09-12T14:18:31.243Z,98380.38
2022-09-12T14:21:06.221Z,98387.28
2022-09-12T14:23:33.911Z,98375.06
2022-09-12T14:26:05.102Z,98379.94
2022-09-12T14:28:32.659Z,98372.03
2022-09-12T14:31:08.555Z,98373.41
2022-09-12T14:33:51.189Z,98366.13
2022-09-12T14:36:32.247Z,98376.25
2022-09-12T14:39:02.730Z,98361.50
2022-09-12T14:41:33.506Z,98372.44
2022-09-12T14:44:05.082Z,98360.19
2022-09-12T14:46:38.420Z,98364.69
2022-09-12T14:49:18.169Z,98366.13
2022-09-12T14:51:51.539Z,98356.66
2022-09-12T14:54:55.149Z,98359.94
2022-09-12T14:57:39.306Z,98352.22
2022-09-12T15:00:12.447Z,98348.69
2022-09-12T15:02:40.244Z,98359.63
2022-09-12T15:05:06.861Z,98351.88
2022-09-12T15:07:41.199Z,98352.53
2022-09-12T15:10:25.333Z,98362.75
2022-09-12T15:13:10.114Z,98355.06
2022-09-12T15:15:38.550Z,98361.88
2022-09-12T15:18:06.823Z,98357.88
2022-09-12T15:20:39.351Z,98351.63
2022-09-12T15:23:38.271Z,98352.28
2022-09-12T15:26:05.157Z,98345.34
2022-09-12T15:28:33.196Z,98354.03
2022-09-12T15:31:18.248Z,98357.56
2022-09-12T15:33:45.180Z,98345.78
2022-09-12T15:36:17.885Z,98340.63
2022-09-12T15:38:45.520Z,98352.41
2022-09-12T15:41:17.459Z,98350.25
2022-09-12T15:43:49.158Z,98356.19
2022-09-12T15:46:17.491Z,98338.06
2022-09-12T15:48:44.239Z,98347.06
2022-09-12T15:51:15.371Z,98356.69
2022-09-12T15:53:43.481Z,98351.97
2022-09-12T15:56:10.276Z,98356.19
2022-09-12T15:58:46.032Z,98355.44
2022-09-12T16:01:24.424Z,98352.06
2022-09-12T16:03:51.166Z,98348.34
2022-09-12T16:06:17.913Z,98348.63
2022-09-12T16:08:44.717Z,98353.75
2022-09-12T16:11:19.961Z,98358.81
2022-09-12T16:13:46.717Z,98342.22
2022-09-12T16:16:13.466Z,98350.38
2022-09-12T16:18:40.841Z,98349.41
2022-09-12T16:21:10.166Z,98348.81
2022-09-12T16:23:46.074Z,98354.25
2022-09-12T16:26:12.846Z,98349.06
2022-09-12T16:28:39.742Z,98346.13
2022-09-12T16:31:07.696Z,98345.50
2022-09-12T16:33:35.164Z,98341.41
2022-09-12T16:36:04.005Z,98341.22
2022-09-12T16:38:31.836Z,98338.69
2022-09-12T16:41:06.874Z,98342.53
2022-09-12T16:43:35.701Z,98346.28
2022-09-12T16:46:09.211Z,98338.72
2022-09-12T16:48:36.450Z,98346.56
2022-09-12T16:51:06.908Z,98343.91
2022-09-12T16:53:35.806Z,98347.78
2022-09-12T16:56:03.402Z,98356.69
2022-09-12T16:58:39.675Z,98343.63
2022-09-12T17:01:14.759Z,98346.59
2022-09-12T17:03:42.025Z,98341.56
2022-09-12T17:06:18.423Z,98333.72
2022-09-12T17:08:48.190Z,98343.78
2022-09-12T17:11:17.935Z,98335.44
2022-09-12T17:14:04.503Z,98345.44
2022-09-12T17:16:33.201Z,98352.16
2022-09-12T17:18:59.902Z,98354.03
2022-09-12T17:21:26.492Z,98365.97
2022-09-12T17:23:53.288Z,98363.44
2022-09-12T17:26:20.859Z,98377.38
2022-09-12T17:28:48.245Z,98367.09
2022-09-12T17:31:15.147Z,98372.94
2022-09-12T17:33:42.422Z,98374.44
2022-09-12T17:36:15.021Z,98382.84
2022-09-12T17:38:43.509Z,98386.00
2022-09-12T17:41:18.779Z,98389.38
2022-09-12T17:43:51.211Z,98392.88
2022-09-12T17:46:22.153Z,98392.69
2022-09-12T17:48:56.789Z,98395.03
2022-09-12T17:51:25.915Z,98399.34
2022-09-12T17:54:01.255Z,98391.91
2022-09-12T17:56:30.826Z,98401.81
2022-09-12T17:58:58.871Z,98403.75
2022-09-12T18:01:45.277Z,98412.28
2022-09-12T18:04:12.483Z,98414.38
2022-09-12T18:06:40.785Z,98414.19
2022-09-12T18:09:09.688Z,98412.09
2022-09-12T18:11:36.608Z,98421.50
2022-09-12T18:14:03.239Z,98416.75
2022-09-12T18:16:31.481Z,98418.06
2022-09-12T18:19:01.570Z,98429.41
2022-09-12T18:21:29.093Z,98426.50
2022-09-12T18:23:59.885Z,98430.81
2022-09-12T18:26:28.283Z,98428.91
2022-09-12T18:28:55.938Z,98420.78
2022-09-12T18:31:25.720Z,98425.25
2022-09-12T18:33:52.892Z,98427.84
2022-09-12T18:36:19.973Z,98433.81
2022-09-12T18:38:47.872Z,98432.75
2022-09-12T18:41:18.001Z,98419.84
2022-09-12T18:43:45.159Z,98428.16
2022-09-12T18:46:16.990Z,98446.38
2022-09-12T18:48:45.123Z,98450.72
2022-09-12T18:51:14.790Z,98456.94
2022-09-12T18:53:42.754Z,98458.84
2022-09-12T18:56:13.602Z,98456.63
2022-09-12T18:58:42.733Z,98466.41
2022-09-12T19:01:14.484Z,98453.06
2022-09-12T19:03:42.000Z,98459.84
2022-09-12T19:06:11.724Z,98468.72
2022-09-12T19:08:39.669Z,98468.34
2022-09-12T19:11:07.789Z,98470.16
2022-09-12T19:13:40.079Z,98475.53
2022-09-12T19:16:09.361Z,98482.13
2022-09-12T19:18:38.217Z,98466.06
2022-09-12T19:21:05.704Z,98463.69
2022-09-12T19:23:35.693Z,98469.03
2022-09-12T19:26:05.751Z,98468.72
2022-09-12T19:28:33.226Z,98463.81
2022-09-12T19:31:00.410Z,98455.38
2022-09-12T19:33:27.172Z,98465.25
2022-09-12T19:35:53.870Z,98460.19
2022-09-12T19:38:20.618Z,98461.56
2022-09-12T19:40:59.185Z,98460.44
2022-09-12T19:43:26.578Z,98452.34
2022-09-12T19:46:20.930Z,98458.41
2022-09-12T19:48:48.744Z,98466.94
2022-09-12T19:51:16.723Z,98461.31
2022-09-12T19:53:44.857Z,98467.06
2022-09-12T19:56:19.540Z,98462.81
2022-09-12T19:59:00.453Z,98451.59
2022-09-12T20:01:37.333Z,98457.75
2022-09-12T20:04:08.841Z,98448.06
2022-09-12T20:06:36.798Z,98456.09
2022-09-12T20:09:03.798Z,98458.88
2022-09-12T20:11:31.438Z,98457.88
2022-09-12T20:13:58.439Z,98452.69
2022-09-12T20:16:29.545Z,98459.16
2022-09-12T20:18:59.551Z,98462.09
2022-09-12T20:21:32.201Z,98460.94
2022-09-12T20:24:12.240Z,98464.72
2022-09-12T20:26:39.863Z,98447.56
2022-09-12T20:29:07.439Z,98454.47
2022-09-12T20:31:36.484Z,98459.19
2022-09-12T20:34:04.749Z,98461.13
2022-09-12T20:36:31.950Z,98451.50
2022-09-12T20:39:02.606Z,98444.03
2022-09-12T20:41:32.380Z,98446.44
2022-09-12T20:43:59.756Z,98417.72
2022-09-12T20:46:28.701Z,98445.59
2022-09-12T20:48:55.697Z,98438.84
2022-09-12T20:51:24.579Z,98440.19
2022-09-12T20:53:56.148Z,98426.94
2022-09-12T20:56:23.876Z,98438.94
2022-09-12T20:58:51.515Z,98443.59
2022-09-12T21:01:18.516Z,98444.50
2022-09-12T21:03:45.640Z,98453.59
2022-09-12T21:06:14.310Z,98455.81
2022-09-12T21:08:41.060Z,98458.00
2022-09-12T21:11:07.906Z,98456.69
2022-09-12T21:13:35.038Z,98452.84
2022-09-12T21:16:21.132Z,98443.34
2022-09-12T21:18:53.878Z,98441.66
2022-09-12T21:21:21.147Z,98451.91
2022-09-12T21:23:48.126Z,98450.50
2022-09-12T21:26:15.089Z,98455.34
2022-09-12T21:28:41.785Z,98445.69
2022-09-12T21:31:09.172Z,98447.06
2022-09-12T21:33:35.934Z,98449.50
2022-09-12T21:36:04.550Z,98444.28
2022-09-12T21:38:31.881Z,98447.19
2022-09-12T21:41:09.624Z,98455.66
2022-09-12T21:43:36.660Z,98459.03
2022-09-12T21:46:04.500Z,98457.47
2022-09-12T21:48:31.743Z,98442.13
2022-09-12T21:50:58.903Z,98450.69
2022-09-12T21:53:25.973Z,98457.13
2022-09-12T21:55:52.725Z,98460.75
2022-09-12T21:58:19.650Z,98453.72
2022-09-12T22:00:46.690Z,98459.19
2022-09-12T22:03:14.192Z,98460.28
2022-09-12T22:05:40.901Z,98462.72
2022-09-12T22:08:08.806Z,98450.66
2022-09-12T22:10:35.605Z,98444.84
2022-09-12T22:13:02.469Z,98445.09
2022-09-12T22:15:44.377Z,98430.34
2022-09-12T22:18:11.499Z,98419.56
2022-09-12T22:20:38.200Z,98435.66
2022-09-12T22:23:25.072Z,98432.16
2022-09-12T22:25:55.697Z,98427.69
2022-09-12T22:28:22.782Z,98416.19
2022-09-12T22:30:49.648Z,98445.81
2022-09-12T22:33:16.564Z,98452.34
2022-09-12T22:35:43.288Z,98425.41
2022-09-12T22:38:10.988Z,98426.50
2022-09-12T22:40:37.664Z,98423.19
2022-09-12T22:43:04.859Z,98435.31
2022-09-12T22:45:31.374Z,98427.94
2022-09-12T22:48:00.797Z,98419.34
2022-09-12T22:50:28.188Z,98406.91
2022-09-12T22:52:55.186Z,98403.75
2022-09-12T22:55:21.873Z,98408.97
2022-09-12T22:57:48.606Z,98394.94
2022-09-12T23:00:15.310Z,98398.94
2022-09-12T23:02:42.746Z,98411.00
2022-09-12T23:05:09.531Z,98418.88
2022-09-12T23:07:36.417Z,98425.50
2022-09-12T23:10:03.557Z,98430.94
2022-09-12T23:12:31.887Z,98423.94
2022-09-12T23:14:58.573Z,98428.63
2022-09-12T23:17:25.339Z,98406.00
2022-09-12T23:19:52.611Z,98411.81
2022-09-12T23:22:19.351Z,98380.16
2022-09-12T23:24:46.034Z,98386.56
2022-09-12T23:27:12.768Z,98389.38
2022-09-12T23:29:39.474Z,98370.97
2022-09-12T23:32:06.787Z,98377.16
2022-09-12T23:34:33.607Z,98402.78
2022-09-12T23:37:00.293Z,98402.38
2022-09-12T23:39:27.040Z,98387.91
2022-09-12T23:41:53.725Z,98394.28
2022-09-12T23:44:20.451Z,98389.69
2022-09-12T23:46:47.184Z,98376.84
2022-09-12T23:49:13.879Z,98385.78
2022-09-12T23:51:40.630Z,98378.91
2022-09-12T23:54:07.313Z,98378.25
2022-09-12T23:56:34.183Z,98378.97
2022-09-12T23:59:00.853Z,98387.78
